sensor_id;sensor_type;location;lat;lon;timestamp;P1;durP1;ratioP1;P2;durP2;ratioP2
22677;SDS011;26259;50.214;18.620;2023-04-16T00:00:48;82.23;;;42.00;;
22677;SDS011;26259;50.214;18.620;2023-04-16T00:03:14;114.57;;;46.33;;
22677;SDS011;26259;50.214;18.620;2023-04-16T00:05:40;85.57;;;39.67;;
22677;SDS011;26259;50.214;18.620;2023-04-16T00:08:05;159.33;;;46.60;;
22677;SDS011;26259;50.214;18.620;2023-04-16T00:10:32;289.30;;;49.83;;
22677;SDS011;26259;50.214;18.620;2023-04-16T00:12:59;364.37;;;49.20;;
22677;SDS011;26259;50.214;18.620;2023-04-16T00:15:24;98.53;;;39.10;;
22677;SDS011;26259;50.214;18.620;2023-04-16T00:17:50;169.67;;;41.20;;
22677;SDS011;26259;50.214;18.620;2023-04-16T00:20:16;213.90;;;46.07;;
22677;SDS011;26259;50.214;18.620;2023-04-16T00:22:41;115.47;;;41.70;;
22677;SDS011;26259;50.214;18.620;2023-04-16T00:25:07;233.73;;;43.33;;
22677;SDS011;26259;50.214;18.620;2023-04-16T00:27:33;155.63;;;42.67;;
22677;SDS011;26259;50.214;18.620;2023-04-16T00:29:58;135.67;;;40.30;;
22677;SDS011;26259;50.214;18.620;2023-04-16T00:32:24;168.73;;;42.47;;
22677;SDS011;26259;50.214;18.620;2023-04-16T00:34:49;413.83;;;49.60;;
22677;SDS011;26259;50.214;18.620;2023-04-16T00:37:15;165.70;;;38.97;;
22677;SDS011;26259;50.214;18.620;2023-04-16T00:39:41;391.67;;;47.03;;
22677;SDS011;26259;50.214;18.620;2023-04-16T00:42:06;296.90;;;44.17;;
22677;SDS011;26259;50.214;18.620;2023-04-16T00:44:32;227.03;;;43.53;;
22677;SDS011;26259;50.214;18.620;2023-04-16T00:47:00;287.53;;;44.50;;
22677;SDS011;26259;50.214;18.620;2023-04-16T00:49:27;179.87;;;46.90;;
22677;SDS011;26259;50.214;18.620;2023-04-16T00:51:53;287.90;;;47.43;;
22677;SDS011;26259;50.214;18.620;2023-04-16T00:54:19;354.77;;;55.37;;
22677;SDS011;26259;50.214;18.620;2023-04-16T00:56:45;214.50;;;51.90;;
22677;SDS011;26259;50.214;18.620;2023-04-16T00:59:11;160.93;;;52.30;;
22677;SDS011;26259;50.214;18.620;2023-04-16T01:01:36;152.80;;;50.37;;
22677;SDS011;26259;50.214;18.620;2023-04-16T01:04:02;118.30;;;45.83;;
22677;SDS011;26259;50.214;18.620;2023-04-16T01:06:28;189.97;;;45.40;;
22677;SDS011;26259;50.214;18.620;2023-04-16T01:08:53;151.40;;;37.37;;
22677;SDS011;26259;50.214;18.620;2023-04-16T01:11:19;348.80;;;41.30;;
22677;SDS011;26259;50.214;18.620;2023-04-16T01:13:45;213.37;;;35.57;;
22677;SDS011;26259;50.214;18.620;2023-04-16T01:16:11;282.73;;;37.93;;
22677;SDS011;26259;50.214;18.620;2023-04-16T01:18:37;189.63;;;37.53;;
22677;SDS011;26259;50.214;18.620;2023-04-16T01:21:03;105.90;;;36.43;;
22677;SDS011;26259;50.214;18.620;2023-04-16T01:23:30;132.57;;;39.33;;
22677;SDS011;26259;50.214;18.620;2023-04-16T01:25:55;171.53;;;41.13;;
22677;SDS011;26259;50.214;18.620;2023-04-16T01:28:21;162.63;;;57.03;;
22677;SDS011;26259;50.214;18.620;2023-04-16T01:30:47;91.13;;;43.80;;
22677;SDS011;26259;50.214;18.620;2023-04-16T01:33:13;154.13;;;49.47;;
22677;SDS011;26259;50.214;18.620;2023-04-16T01:35:39;171.57;;;50.37;;
22677;SDS011;26259;50.214;18.620;2023-04-16T01:38:06;240.73;;;54.73;;
22677;SDS011;26259;50.214;18.620;2023-04-16T01:40:33;140.10;;;38.83;;
22677;SDS011;26259;50.214;18.620;2023-04-16T01:42:59;252.43;;;93.50;;
22677;SDS011;26259;50.214;18.620;2023-04-16T01:45:25;178.90;;;50.87;;
22677;SDS011;26259;50.214;18.620;2023-04-16T01:47:50;453.43;;;141.37;;
22677;SDS011;26259;50.214;18.620;2023-04-16T01:50:17;274.50;;;53.97;;
22677;SDS011;26259;50.214;18.620;2023-04-16T01:52:44;376.43;;;53.07;;
22677;SDS011;26259;50.214;18.620;2023-04-16T01:55:10;369.17;;;53.70;;
22677;SDS011;26259;50.214;18.620;2023-04-16T01:57:35;194.20;;;45.83;;
22677;SDS011;26259;50.214;18.620;2023-04-16T02:00:01;172.47;;;38.77;;
22677;SDS011;26259;50.214;18.620;2023-04-16T02:02:27;180.23;;;39.17;;
22677;SDS011;26259;50.214;18.620;2023-04-16T02:04:53;120.93;;;40.07;;
22677;SDS011;26259;50.214;18.620;2023-04-16T02:07:20;172.30;;;39.67;;
22677;SDS011;26259;50.214;18.620;2023-04-16T02:09:46;183.80;;;40.33;;
22677;SDS011;26259;50.214;18.620;2023-04-16T02:12:11;96.80;;;30.10;;
22677;SDS011;26259;50.214;18.620;2023-04-16T02:14:37;145.63;;;30.73;;
22677;SDS011;26259;50.214;18.620;2023-04-16T02:17:03;61.10;;;28.77;;
22677;SDS011;26259;50.214;18.620;2023-04-16T02:19:29;95.90;;;31.23;;
22677;SDS011;26259;50.214;18.620;2023-04-16T02:21:54;138.23;;;35.43;;
22677;SDS011;26259;50.214;18.620;2023-04-16T02:24:20;197.97;;;41.57;;
22677;SDS011;26259;50.214;18.620;2023-04-16T02:26:46;121.87;;;31.07;;
22677;SDS011;26259;50.214;18.620;2023-04-16T02:29:11;147.90;;;33.63;;
22677;SDS011;26259;50.214;18.620;2023-04-16T02:31:37;148.87;;;30.43;;
22677;SDS011;26259;50.214;18.620;2023-04-16T02:34:03;99.43;;;26.80;;
22677;SDS011;26259;50.214;18.620;2023-04-16T02:36:29;59.20;;;27.97;;
22677;SDS011;26259;50.214;18.620;2023-04-16T02:38:55;52.60;;;28.43;;
22677;SDS011;26259;50.214;18.620;2023-04-16T02:41:21;67.53;;;28.10;;
22677;SDS011;26259;50.214;18.620;2023-04-16T02:43:47;95.47;;;41.73;;
22677;SDS011;26259;50.214;18.620;2023-04-16T02:46:13;87.53;;;30.50;;
22677;SDS011;26259;50.214;18.620;2023-04-16T02:48:38;55.93;;;28.37;;
22677;SDS011;26259;50.214;18.620;2023-04-16T02:51:04;59.10;;;28.27;;
22677;SDS011;26259;50.214;18.620;2023-04-16T02:53:29;54.87;;;27.13;;
22677;SDS011;26259;50.214;18.620;2023-04-16T02:55:55;43.93;;;28.13;;
22677;SDS011;26259;50.214;18.620;2023-04-16T02:58:22;48.77;;;28.03;;
22677;SDS011;26259;50.214;18.620;2023-04-16T03:00:49;63.17;;;35.07;;
22677;SDS011;26259;50.214;18.620;2023-04-16T03:03:15;93.27;;;39.57;;
22677;SDS011;26259;50.214;18.620;2023-04-16T03:05:41;71.10;;;38.60;;
22677;SDS011;26259;50.214;18.620;2023-04-16T03:08:07;107.43;;;38.57;;
22677;SDS011;26259;50.214;18.620;2023-04-16T03:10:33;104.23;;;36.47;;
22677;SDS011;26259;50.214;18.620;2023-04-16T03:13:00;71.53;;;30.43;;
22677;SDS011;26259;50.214;18.620;2023-04-16T03:15:25;44.77;;;25.40;;
22677;SDS011;26259;50.214;18.620;2023-04-16T03:17:51;142.43;;;30.77;;
22677;SDS011;26259;50.214;18.620;2023-04-16T03:20:17;124.13;;;30.00;;
22677;SDS011;26259;50.214;18.620;2023-04-16T03:22:43;94.67;;;31.70;;
22677;SDS011;26259;50.214;18.620;2023-04-16T03:25:09;166.30;;;33.43;;
22677;SDS011;26259;50.214;18.620;2023-04-16T03:27:35;137.30;;;32.97;;
22677;SDS011;26259;50.214;18.620;2023-04-16T03:30:01;105.03;;;34.53;;
22677;SDS011;26259;50.214;18.620;2023-04-16T03:32:27;69.73;;;30.67;;
22677;SDS011;26259;50.214;18.620;2023-04-16T03:34:52;76.90;;;28.10;;
22677;SDS011;26259;50.214;18.620;2023-04-16T03:37:18;67.70;;;28.00;;
22677;SDS011;26259;50.214;18.620;2023-04-16T03:39:44;102.57;;;33.87;;
22677;SDS011;26259;50.214;18.620;2023-04-16T03:42:09;114.00;;;37.03;;
22677;SDS011;26259;50.214;18.620;2023-04-16T03:44:35;77.07;;;36.13;;
22677;SDS011;26259;50.214;18.620;2023-04-16T03:47:00;100.57;;;37.50;;
22677;SDS011;26259;50.214;18.620;2023-04-16T03:49:26;98.63;;;33.40;;
22677;SDS011;26259;50.214;18.620;2023-04-16T03:51:51;85.63;;;30.00;;
22677;SDS011;26259;50.214;18.620;2023-04-16T03:54:17;250.90;;;38.37;;
22677;SDS011;26259;50.214;18.620;2023-04-16T03:56:42;57.07;;;30.87;;
22677;SDS011;26259;50.214;18.620;2023-04-16T03:59:08;125.00;;;35.60;;
22677;SDS011;26259;50.214;18.620;2023-04-16T04:01:34;122.80;;;35.70;;
22677;SDS011;26259;50.214;18.620;2023-04-16T04:03:59;121.77;;;37.30;;
22677;SDS011;26259;50.214;18.620;2023-04-16T04:06:25;252.73;;;41.53;;
22677;SDS011;26259;50.214;18.620;2023-04-16T04:08:51;155.10;;;39.60;;
22677;SDS011;26259;50.214;18.620;2023-04-16T04:11:17;113.67;;;40.73;;
22677;SDS011;26259;50.214;18.620;2023-04-16T04:13:43;101.73;;;40.17;;
22677;SDS011;26259;50.214;18.620;2023-04-16T04:16:08;122.83;;;41.90;;
22677;SDS011;26259;50.214;18.620;2023-04-16T04:18:34;99.97;;;43.07;;
22677;SDS011;26259;50.214;18.620;2023-04-16T04:21:04;113.40;;;43.10;;
22677;SDS011;26259;50.214;18.620;2023-04-16T04:23:33;76.10;;;44.17;;
22677;SDS011;26259;50.214;18.620;2023-04-16T04:25:59;104.07;;;45.63;;
22677;SDS011;26259;50.214;18.620;2023-04-16T04:28:27;135.00;;;54.73;;
22677;SDS011;26259;50.214;18.620;2023-04-16T04:30:53;89.70;;;47.93;;
22677;SDS011;26259;50.214;18.620;2023-04-16T04:33:19;123.23;;;48.53;;
22677;SDS011;26259;50.214;18.620;2023-04-16T04:35:44;149.03;;;47.73;;
22677;SDS011;26259;50.214;18.620;2023-04-16T04:38:10;91.27;;;46.63;;
22677;SDS011;26259;50.214;18.620;2023-04-16T04:40:35;97.90;;;52.07;;
22677;SDS011;26259;50.214;18.620;2023-04-16T04:43:01;86.27;;;47.53;;
22677;SDS011;26259;50.214;18.620;2023-04-16T04:45:26;77.70;;;45.07;;
22677;SDS011;26259;50.214;18.620;2023-04-16T04:47:52;71.23;;;43.47;;
22677;SDS011;26259;50.214;18.620;2023-04-16T04:50:18;71.97;;;47.47;;
22677;SDS011;26259;50.214;18.620;2023-04-16T04:52:43;66.50;;;42.03;;
22677;SDS011;26259;50.214;18.620;2023-04-16T04:55:09;65.37;;;43.67;;
22677;SDS011;26259;50.214;18.620;2023-04-16T04:57:35;76.83;;;51.57;;
22677;SDS011;26259;50.214;18.620;2023-04-16T05:00:00;72.60;;;54.07;;
22677;SDS011;26259;50.214;18.620;2023-04-16T05:02:28;65.13;;;43.10;;
22677;SDS011;26259;50.214;18.620;2023-04-16T05:04:53;67.43;;;41.87;;
22677;SDS011;26259;50.214;18.620;2023-04-16T05:07:19;61.10;;;39.40;;
22677;SDS011;26259;50.214;18.620;2023-04-16T05:09:45;58.97;;;39.70;;
22677;SDS011;26259;50.214;18.620;2023-04-16T05:12:10;55.23;;;34.53;;
22677;SDS011;26259;50.214;18.620;2023-04-16T05:14:36;56.97;;;37.20;;
22677;SDS011;26259;50.214;18.620;2023-04-16T05:17:01;53.53;;;35.67;;
22677;SDS011;26259;50.214;18.620;2023-04-16T05:19:27;55.33;;;36.70;;
22677;SDS011;26259;50.214;18.620;2023-04-16T05:21:53;49.77;;;35.10;;
22677;SDS011;26259;50.214;18.620;2023-04-16T05:24:18;47.73;;;34.33;;
22677;SDS011;26259;50.214;18.620;2023-04-16T05:26:44;45.33;;;32.40;;
22677;SDS011;26259;50.214;18.620;2023-04-16T05:29:10;45.83;;;32.10;;
22677;SDS011;26259;50.214;18.620;2023-04-16T05:31:35;47.93;;;32.53;;
22677;SDS011;26259;50.214;18.620;2023-04-16T05:34:01;45.07;;;33.17;;
22677;SDS011;26259;50.214;18.620;2023-04-16T05:36:26;47.80;;;34.97;;
22677;SDS011;26259;50.214;18.620;2023-04-16T05:38:52;57.40;;;41.50;;
22677;SDS011;26259;50.214;18.620;2023-04-16T05:41:17;42.63;;;33.33;;
22677;SDS011;26259;50.214;18.620;2023-04-16T05:43:43;52.53;;;39.47;;
22677;SDS011;26259;50.214;18.620;2023-04-16T05:46:08;39.00;;;28.73;;
22677;SDS011;26259;50.214;18.620;2023-04-16T05:48:34;31.03;;;23.60;;
22677;SDS011;26259;50.214;18.620;2023-04-16T05:50:59;26.73;;;21.27;;
22677;SDS011;26259;50.214;18.620;2023-04-16T05:53:26;24.90;;;19.50;;
22677;SDS011;26259;50.214;18.620;2023-04-16T05:55:52;24.17;;;19.30;;
22677;SDS011;26259;50.214;18.620;2023-04-16T05:58:17;23.67;;;18.30;;
22677;SDS011;26259;50.214;18.620;2023-04-16T06:00:43;21.53;;;16.67;;
22677;SDS011;26259;50.214;18.620;2023-04-16T06:03:09;23.00;;;19.17;;
22677;SDS011;26259;50.214;18.620;2023-04-16T06:05:34;25.03;;;20.63;;
22677;SDS011;26259;50.214;18.620;2023-04-16T06:08:00;23.87;;;19.83;;
22677;SDS011;26259;50.214;18.620;2023-04-16T06:10:25;20.70;;;16.67;;
22677;SDS011;26259;50.214;18.620;2023-04-16T06:12:52;21.40;;;16.30;;
22677;SDS011;26259;50.214;18.620;2023-04-16T06:15:17;18.87;;;14.87;;
22677;SDS011;26259;50.214;18.620;2023-04-16T06:17:43;15.83;;;11.97;;
22677;SDS011;26259;50.214;18.620;2023-04-16T06:20:08;13.17;;;9.87;;
22677;SDS011;26259;50.214;18.620;2023-04-16T06:22:35;13.77;;;10.60;;
22677;SDS011;26259;50.214;18.620;2023-04-16T06:25:00;12.97;;;10.43;;
22677;SDS011;26259;50.214;18.620;2023-04-16T06:27:26;13.63;;;12.20;;
22677;SDS011;26259;50.214;18.620;2023-04-16T06:29:51;16.70;;;11.60;;
22677;SDS011;26259;50.214;18.620;2023-04-16T06:32:18;10.80;;;9.63;;
22677;SDS011;26259;50.214;18.620;2023-04-16T06:34:44;15.00;;;11.33;;
22677;SDS011;26259;50.214;18.620;2023-04-16T06:37:09;12.00;;;10.20;;
22677;SDS011;26259;50.214;18.620;2023-04-16T06:39:35;10.57;;;8.63;;
22677;SDS011;26259;50.214;18.620;2023-04-16T06:42:00;10.73;;;8.57;;
22677;SDS011;26259;50.214;18.620;2023-04-16T06:44:26;11.43;;;8.50;;
22677;SDS011;26259;50.214;18.620;2023-04-16T06:46:51;9.07;;;7.53;;
22677;SDS011;26259;50.214;18.620;2023-04-16T06:49:17;13.30;;;10.77;;
22677;SDS011;26259;50.214;18.620;2023-04-16T06:51:42;11.00;;;9.10;;
22677;SDS011;26259;50.214;18.620;2023-04-16T06:54:08;10.13;;;9.03;;
22677;SDS011;26259;50.214;18.620;2023-04-16T06:56:34;11.83;;;8.50;;
22677;SDS011;26259;50.214;18.620;2023-04-16T06:59:01;10.47;;;9.00;;
22677;SDS011;26259;50.214;18.620;2023-04-16T07:01:27;9.90;;;7.60;;
22677;SDS011;26259;50.214;18.620;2023-04-16T07:03:55;9.43;;;8.20;;
22677;SDS011;26259;50.214;18.620;2023-04-16T07:06:21;9.47;;;7.77;;
22677;SDS011;26259;50.214;18.620;2023-04-16T07:08:46;14.90;;;12.47;;
22677;SDS011;26259;50.214;18.620;2023-04-16T07:11:12;9.47;;;8.47;;
22677;SDS011;26259;50.214;18.620;2023-04-16T07:13:37;9.70;;;7.73;;
22677;SDS011;26259;50.214;18.620;2023-04-16T07:16:03;9.17;;;7.90;;
22677;SDS011;26259;50.214;18.620;2023-04-16T07:18:29;10.00;;;8.37;;
22677;SDS011;26259;50.214;18.620;2023-04-16T07:20:55;10.83;;;8.17;;
22677;SDS011;26259;50.214;18.620;2023-04-16T07:23:21;9.77;;;7.93;;
22677;SDS011;26259;50.214;18.620;2023-04-16T07:25:47;7.47;;;6.60;;
22677;SDS011;26259;50.214;18.620;2023-04-16T07:28:12;11.90;;;8.37;;
22677;SDS011;26259;50.214;18.620;2023-04-16T07:30:40;8.90;;;7.60;;
22677;SDS011;26259;50.214;18.620;2023-04-16T07:33:06;8.80;;;7.80;;
22677;SDS011;26259;50.214;18.620;2023-04-16T07:35:31;6.43;;;5.63;;
22677;SDS011;26259;50.214;18.620;2023-04-16T07:37:57;6.53;;;5.80;;
22677;SDS011;26259;50.214;18.620;2023-04-16T07:40:22;12.80;;;5.97;;
22677;SDS011;26259;50.214;18.620;2023-04-16T07:42:48;7.53;;;5.90;;
22677;SDS011;26259;50.214;18.620;2023-04-16T07:45:14;7.63;;;6.27;;
22677;SDS011;26259;50.214;18.620;2023-04-16T07:47:41;7.37;;;5.37;;
22677;SDS011;26259;50.214;18.620;2023-04-16T07:50:06;5.93;;;4.83;;
22677;SDS011;26259;50.214;18.620;2023-04-16T07:52:32;4.93;;;4.43;;
22677;SDS011;26259;50.214;18.620;2023-04-16T07:54:58;5.70;;;5.10;;
22677;SDS011;26259;50.214;18.620;2023-04-16T07:57:23;5.83;;;5.23;;
22677;SDS011;26259;50.214;18.620;2023-04-16T07:59:49;5.60;;;4.50;;
22677;SDS011;26259;50.214;18.620;2023-04-16T08:02:14;7.13;;;4.70;;
22677;SDS011;26259;50.214;18.620;2023-04-16T08:04:41;6.80;;;5.20;;
22677;SDS011;26259;50.214;18.620;2023-04-16T08:07:07;5.33;;;4.20;;
22677;SDS011;26259;50.214;18.620;2023-04-16T08:09:33;4.67;;;4.13;;
22677;SDS011;26259;50.214;18.620;2023-04-16T08:12:02;4.10;;;3.70;;
22677;SDS011;26259;50.214;18.620;2023-04-16T08:14:28;6.17;;;4.23;;
22677;SDS011;26259;50.214;18.620;2023-04-16T08:16:53;4.30;;;3.60;;
22677;SDS011;26259;50.214;18.620;2023-04-16T08:19:19;4.30;;;3.90;;
22677;SDS011;26259;50.214;18.620;2023-04-16T08:21:45;5.97;;;4.20;;
22677;SDS011;26259;50.214;18.620;2023-04-16T08:24:11;4.67;;;3.77;;
22677;SDS011;26259;50.214;18.620;2023-04-16T08:26:36;4.53;;;3.83;;
22677;SDS011;26259;50.214;18.620;2023-04-16T08:29:02;4.30;;;3.53;;
22677;SDS011;26259;50.214;18.620;2023-04-16T08:31:27;4.07;;;3.67;;
22677;SDS011;26259;50.214;18.620;2023-04-16T08:33:53;4.63;;;3.60;;
22677;SDS011;26259;50.214;18.620;2023-04-16T08:36:18;4.67;;;3.67;;
22677;SDS011;26259;50.214;18.620;2023-04-16T08:38:44;4.30;;;3.60;;
22677;SDS011;26259;50.214;18.620;2023-04-16T08:41:10;6.63;;;4.03;;
22677;SDS011;26259;50.214;18.620;2023-04-16T08:43:37;4.77;;;3.50;;
22677;SDS011;26259;50.214;18.620;2023-04-16T08:46:06;4.17;;;3.67;;
22677;SDS011;26259;50.214;18.620;2023-04-16T08:48:33;3.97;;;3.27;;
22677;SDS011;26259;50.214;18.620;2023-04-16T08:50:59;3.03;;;2.83;;
22677;SDS011;26259;50.214;18.620;2023-04-16T08:53:32;3.40;;;3.10;;
22677;SDS011;26259;50.214;18.620;2023-04-16T08:56:03;3.83;;;3.17;;
22677;SDS011;26259;50.214;18.620;2023-04-16T08:58:31;3.03;;;2.60;;
22677;SDS011;26259;50.214;18.620;2023-04-16T09:01:00;3.33;;;2.73;;
22677;SDS011;26259;50.214;18.620;2023-04-16T09:03:28;20.30;;;8.93;;
22677;SDS011;26259;50.214;18.620;2023-04-16T09:05:56;7.83;;;4.00;;
22677;SDS011;26259;50.214;18.620;2023-04-16T09:08:24;4.67;;;3.30;;
22677;SDS011;26259;50.214;18.620;2023-04-16T09:10:50;8.97;;;4.97;;
22677;SDS011;26259;50.214;18.620;2023-04-16T09:13:15;4.60;;;3.70;;
22677;SDS011;26259;50.214;18.620;2023-04-16T09:15:44;4.37;;;3.50;;
22677;SDS011;26259;50.214;18.620;2023-04-16T09:18:10;3.57;;;3.27;;
22677;SDS011;26259;50.214;18.620;2023-04-16T09:20:36;4.73;;;3.80;;
22677;SDS011;26259;50.214;18.620;2023-04-16T09:23:02;4.37;;;3.97;;
22677;SDS011;26259;50.214;18.620;2023-04-16T09:25:31;6.00;;;4.70;;
22677;SDS011;26259;50.214;18.620;2023-04-16T09:28:01;5.93;;;4.30;;
22677;SDS011;26259;50.214;18.620;2023-04-16T09:30:26;4.03;;;3.53;;
22677;SDS011;26259;50.214;18.620;2023-04-16T09:33:10;4.67;;;4.03;;
22677;SDS011;26259;50.214;18.620;2023-04-16T09:35:44;4.20;;;3.43;;
22677;SDS011;26259;50.214;18.620;2023-04-16T09:38:11;6.77;;;4.90;;
22677;SDS011;26259;50.214;18.620;2023-04-16T09:40:37;4.00;;;3.60;;
22677;SDS011;26259;50.214;18.620;2023-04-16T09:43:08;3.20;;;2.90;;
22677;SDS011;26259;50.214;18.620;2023-04-16T09:45:50;7.53;;;6.00;;
22677;SDS011;26259;50.214;18.620;2023-04-16T09:48:27;10.47;;;7.57;;
22677;SDS011;26259;50.214;18.620;2023-04-16T09:50:57;14.20;;;8.87;;
22677;SDS011;26259;50.214;18.620;2023-04-16T09:53:30;6.83;;;5.90;;
22677;SDS011;26259;50.214;18.620;2023-04-16T09:55:57;10.27;;;7.50;;
22677;SDS011;26259;50.214;18.620;2023-04-16T09:58:23;7.90;;;7.10;;
22677;SDS011;26259;50.214;18.620;2023-04-16T10:01:06;7.53;;;6.73;;
22677;SDS011;26259;50.214;18.620;2023-04-16T10:03:35;6.20;;;5.60;;
22677;SDS011;26259;50.214;18.620;2023-04-16T10:06:13;9.27;;;6.23;;
22677;SDS011;26259;50.214;18.620;2023-04-16T10:08:43;5.67;;;4.23;;
22677;SDS011;26259;50.214;18.620;2023-04-16T10:11:10;5.50;;;4.53;;
22677;SDS011;26259;50.214;18.620;2023-04-16T10:13:36;8.03;;;6.73;;
22677;SDS011;26259;50.214;18.620;2023-04-16T10:16:01;6.80;;;6.10;;
22677;SDS011;26259;50.214;18.620;2023-04-16T10:18:28;8.10;;;6.33;;
22677;SDS011;26259;50.214;18.620;2023-04-16T10:20:53;6.93;;;5.40;;
22677;SDS011;26259;50.214;18.620;2023-04-16T10:23:20;7.37;;;6.07;;
22677;SDS011;26259;50.214;18.620;2023-04-16T10:25:47;9.57;;;7.17;;
22677;SDS011;26259;50.214;18.620;2023-04-16T10:28:16;7.90;;;5.83;;
22677;SDS011;26259;50.214;18.620;2023-04-16T10:30:43;8.03;;;5.60;;
22677;SDS011;26259;50.214;18.620;2023-04-16T10:33:17;10.90;;;7.30;;
22677;SDS011;26259;50.214;18.620;2023-04-16T10:35:45;12.40;;;8.07;;
22677;SDS011;26259;50.214;18.620;2023-04-16T10:38:23;5.63;;;4.80;;
22677;SDS011;26259;50.214;18.620;2023-04-16T10:40:56;6.17;;;5.37;;
22677;SDS011;26259;50.214;18.620;2023-04-16T10:43:29;6.67;;;5.90;;
22677;SDS011;26259;50.214;18.620;2023-04-16T10:46:00;8.03;;;6.10;;
22677;SDS011;26259;50.214;18.620;2023-04-16T10:48:44;4.97;;;4.30;;
22677;SDS011;26259;50.214;18.620;2023-04-16T10:51:23;5.20;;;4.70;;
22677;SDS011;26259;50.214;18.620;2023-04-16T10:54:03;4.97;;;4.50;;
22677;SDS011;26259;50.214;18.620;2023-04-16T10:56:32;6.47;;;4.70;;
22677;SDS011;26259;50.214;18.620;2023-04-16T10:58:59;6.57;;;4.93;;
22677;SDS011;26259;50.214;18.620;2023-04-16T11:01:28;7.20;;;6.50;;
22677;SDS011;26259;50.214;18.620;2023-04-16T11:03:57;10.30;;;7.30;;
22677;SDS011;26259;50.214;18.620;2023-04-16T11:06:24;7.23;;;5.93;;
22677;SDS011;26259;50.214;18.620;2023-04-16T11:08:51;6.00;;;5.30;;
22677;SDS011;26259;50.214;18.620;2023-04-16T11:11:17;6.57;;;5.47;;
22677;SDS011;26259;50.214;18.620;2023-04-16T11:13:44;7.87;;;4.90;;
22677;SDS011;26259;50.214;18.620;2023-04-16T11:16:13;6.47;;;5.10;;
22677;SDS011;26259;50.214;18.620;2023-04-16T11:18:39;6.30;;;5.30;;
22677;SDS011;26259;50.214;18.620;2023-04-16T11:21:08;6.90;;;5.83;;
22677;SDS011;26259;50.214;18.620;2023-04-16T11:23:44;5.27;;;4.73;;
22677;SDS011;26259;50.214;18.620;2023-04-16T11:26:21;5.70;;;5.07;;
22677;SDS011;26259;50.214;18.620;2023-04-16T11:28:48;5.90;;;5.17;;
22677;SDS011;26259;50.214;18.620;2023-04-16T11:31:14;6.10;;;4.93;;
22677;SDS011;26259;50.214;18.620;2023-04-16T11:33:39;4.83;;;4.33;;
22677;SDS011;26259;50.214;18.620;2023-04-16T11:36:07;7.10;;;4.90;;
22677;SDS011;26259;50.214;18.620;2023-04-16T11:38:33;5.07;;;4.57;;
22677;SDS011;26259;50.214;18.620;2023-04-16T11:41:02;4.97;;;3.83;;
22677;SDS011;26259;50.214;18.620;2023-04-16T11:43:28;3.90;;;3.50;;
22677;SDS011;26259;50.214;18.620;2023-04-16T11:46:00;4.20;;;3.40;;
22677;SDS011;26259;50.214;18.620;2023-04-16T11:48:46;4.00;;;3.60;;
22677;SDS011;26259;50.214;18.620;2023-04-16T11:51:13;2.93;;;2.50;;
22677;SDS011;26259;50.214;18.620;2023-04-16T11:53:51;3.50;;;3.20;;
22677;SDS011;26259;50.214;18.620;2023-04-16T11:56:24;3.60;;;3.30;;
22677;SDS011;26259;50.214;18.620;2023-04-16T11:59:16;3.70;;;3.40;;
22677;SDS011;26259;50.214;18.620;2023-04-16T12:01:41;4.50;;;4.10;;
22677;SDS011;26259;50.214;18.620;2023-04-16T12:04:12;4.17;;;3.77;;
22677;SDS011;26259;50.214;18.620;2023-04-16T12:06:39;3.67;;;3.30;;
22677;SDS011;26259;50.214;18.620;2023-04-16T12:09:24;4.40;;;3.53;;
22677;SDS011;26259;50.214;18.620;2023-04-16T12:11:51;4.77;;;4.10;;
22677;SDS011;26259;50.214;18.620;2023-04-16T12:14:17;4.83;;;3.80;;
22677;SDS011;26259;50.214;18.620;2023-04-16T12:16:42;4.33;;;3.93;;
22677;SDS011;26259;50.214;18.620;2023-04-16T12:19:09;4.30;;;3.90;;
22677;SDS011;26259;50.214;18.620;2023-04-16T12:21:43;4.40;;;4.00;;
22677;SDS011;26259;50.214;18.620;2023-04-16T12:24:11;4.67;;;4.13;;
22677;SDS011;26259;50.214;18.620;2023-04-16T12:26:39;10.13;;;4.27;;
22677;SDS011;26259;50.214;18.620;2023-04-16T12:31:44;5.13;;;4.30;;
22677;SDS011;26259;50.214;18.620;2023-04-16T12:34:10;4.33;;;3.97;;
22677;SDS011;26259;50.214;18.620;2023-04-16T12:36:36;4.83;;;4.00;;
22677;SDS011;26259;50.214;18.620;2023-04-16T12:39:02;5.80;;;4.47;;
22677;SDS011;26259;50.214;18.620;2023-04-16T12:41:28;5.67;;;4.50;;
22677;SDS011;26259;50.214;18.620;2023-04-16T12:44:03;5.70;;;4.33;;
22677;SDS011;26259;50.214;18.620;2023-04-16T12:46:41;4.20;;;3.80;;
22677;SDS011;26259;50.214;18.620;2023-04-16T12:49:08;5.90;;;4.17;;
22677;SDS011;26259;50.214;18.620;2023-04-16T12:51:35;4.47;;;3.80;;
22677;SDS011;26259;50.214;18.620;2023-04-16T12:54:01;4.73;;;3.77;;
22677;SDS011;26259;50.214;18.620;2023-04-16T12:56:29;5.73;;;4.63;;
22677;SDS011;26259;50.214;18.620;2023-04-16T12:58:55;4.73;;;3.73;;
22677;SDS011;26259;50.214;18.620;2023-04-16T13:01:21;4.40;;;4.00;;
22677;SDS011;26259;50.214;18.620;2023-04-16T13:03:47;15.40;;;8.83;;
22677;SDS011;26259;50.214;18.620;2023-04-16T13:06:13;27.33;;;14.83;;
22677;SDS011;26259;50.214;18.620;2023-04-16T13:08:40;5.90;;;4.20;;
22677;SDS011;26259;50.214;18.620;2023-04-16T13:11:07;14.30;;;8.00;;
22677;SDS011;26259;50.214;18.620;2023-04-16T13:13:33;7.43;;;5.20;;
22677;SDS011;26259;50.214;18.620;2023-04-16T13:15:58;4.87;;;3.90;;
22677;SDS011;26259;50.214;18.620;2023-04-16T13:18:24;8.13;;;5.20;;
22677;SDS011;26259;50.214;18.620;2023-04-16T13:20:51;4.50;;;4.10;;
22677;SDS011;26259;50.214;18.620;2023-04-16T13:23:18;5.03;;;4.37;;
22677;SDS011;26259;50.214;18.620;2023-04-16T13:25:43;5.80;;;4.80;;
22677;SDS011;26259;50.214;18.620;2023-04-16T13:28:09;4.63;;;4.20;;
22677;SDS011;26259;50.214;18.620;2023-04-16T13:30:35;5.73;;;4.23;;
22677;SDS011;26259;50.214;18.620;2023-04-16T13:33:00;7.37;;;4.53;;
22677;SDS011;26259;50.214;18.620;2023-04-16T13:35:28;5.17;;;4.47;;
22677;SDS011;26259;50.214;18.620;2023-04-16T13:37:53;5.17;;;4.20;;
22677;SDS011;26259;50.214;18.620;2023-04-16T13:40:19;4.90;;;3.80;;
22677;SDS011;26259;50.214;18.620;2023-04-16T13:42:45;5.70;;;5.00;;
22677;SDS011;26259;50.214;18.620;2023-04-16T13:45:10;4.90;;;4.47;;
22677;SDS011;26259;50.214;18.620;2023-04-16T13:47:39;5.17;;;4.60;;
22677;SDS011;26259;50.214;18.620;2023-04-16T13:50:08;6.40;;;4.60;;
22677;SDS011;26259;50.214;18.620;2023-04-16T13:52:34;6.47;;;5.10;;
22677;SDS011;26259;50.214;18.620;2023-04-16T13:55:00;5.90;;;5.30;;
22677;SDS011;26259;50.214;18.620;2023-04-16T13:57:26;6.40;;;4.40;;
22677;SDS011;26259;50.214;18.620;2023-04-16T13:59:52;5.13;;;4.63;;
22677;SDS011;26259;50.214;18.620;2023-04-16T14:02:19;7.23;;;5.53;;
22677;SDS011;26259;50.214;18.620;2023-04-16T14:04:45;6.83;;;5.40;;
22677;SDS011;26259;50.214;18.620;2023-04-16T14:07:11;6.23;;;4.67;;
22677;SDS011;26259;50.214;18.620;2023-04-16T14:09:36;6.13;;;4.70;;
22677;SDS011;26259;50.214;18.620;2023-04-16T14:12:02;6.57;;;5.47;;
22677;SDS011;26259;50.214;18.620;2023-04-16T14:14:28;7.60;;;6.30;;
22677;SDS011;26259;50.214;18.620;2023-04-16T14:16:54;7.27;;;5.23;;
22677;SDS011;26259;50.214;18.620;2023-04-16T14:19:19;5.63;;;5.13;;